Time;durP1;ratioP1;P1;durP2;ratioP2;P2;SDS_P1;SDS_P2;PMS_P1;PMS_P2;Temp;Humidity;BMP_temperature;BMP_pressure;BME280_temperature;BME280_humidity;BME280_pressure;Samples;Min_cycle;Max_cycle;Signal;HPM_P1;HPM_P2
2022/11/24 00:01:54;;;;;;;8.25;2.00;;;;;;;6.34;100.00;100217.38;4976377;28;20110;-84
2022/11/24 00:04:29;;;;;;;11.32;2.63;;;;;;;6.32;100.00;100217.38;4974858;28;20109;-84
2022/11/24 00:07:00;;;;;;;7.20;2.28;;;;;;;6.29;100.00;100214.84;4976295;28;20475;-84
2022/11/24 00:09:35;;;;;;;7.55;2.20;;;;;;;6.30;100.00;100221.69;4975679;28;20023;-84
2022/11/24 00:12:06;;;;;;;4.53;1.90;;;;;;;6.28;100.00;100215.69;4975412;28;20151;-84
2022/11/24 00:14:37;;;;;;;4.82;1.90;;;;;;;6.27;100.00;100221.72;4976034;28;20019;-84
2022/11/24 00:17:03;;;;;;;6.85;2.00;;;;;;;6.29;100.00;100230.28;4975530;28;20035;-84
2022/11/24 00:19:28;;;;;;;8.53;2.03;;;;;;;6.28;100.00;100235.44;4975387;28;20027;-84
2022/11/24 00:22:00;;;;;;;5.07;1.92;;;;;;;6.26;100.00;100232.88;4975804;28;20494;-85
2022/11/24 00:24:25;;;;;;;6.78;1.83;;;;;;;6.33;100.00;100236.28;4975146;28;20106;-85
2022/11/24 00:26:50;;;;;;;6.32;1.92;;;;;;;6.30;100.00;100244.91;4975014;28;20126;-85
2022/11/24 00:29:16;;;;;;;7.72;2.08;;;;;;;6.31;100.00;100243.16;4975395;28;20030;-84
2022/11/24 00:31:41;;;;;;;7.57;1.90;;;;;;;6.32;100.00;100253.44;4975295;28;20031;-84
2022/11/24 00:34:10;;;;;;;6.40;1.98;;;;;;;6.33;100.00;100246.59;4975573;28;20026;-85
2022/11/24 00:36:36;;;;;;;3.95;1.70;;;;;;;6.33;100.00;100252.59;4975744;28;20085;-84
2022/11/24 00:39:12;;;;;;;4.63;1.80;;;;;;;6.34;100.00;100249.13;4975148;28;20035;-84
2022/11/24 00:41:38;;;;;;;3.97;1.67;;;;;;;6.34;100.00;100246.56;4976368;28;20031;-85
2022/11/24 00:44:03;;;;;;;4.40;1.95;;;;;;;6.33;100.00;100239.69;4975722;28;20089;-84
2022/11/24 00:46:29;;;;;;;6.40;1.80;;;;;;;6.31;100.00;100254.31;4974674;28;20499;-85
2022/11/24 00:48:55;;;;;;;8.57;1.95;;;;;;;6.34;100.00;100254.28;4975476;28;20041;-84
2022/11/24 00:51:23;;;;;;;8.13;2.47;;;;;;;6.32;100.00;100258.59;4975188;28;20022;-85
2022/11/24 00:53:48;;;;;;;4.72;1.85;;;;;;;6.31;100.00;100258.63;4974801;28;20353;-85
2022/11/24 00:56:14;;;;;;;4.32;1.55;;;;;;;6.28;100.00;100261.22;4975293;28;20109;-84
2022/11/24 00:58:39;;;;;;;4.53;1.70;;;;;;;6.26;100.00;100258.66;4975200;28;20061;-84
2022/11/24 01:01:13;;;;;;;3.60;1.80;;;;;;;6.25;100.00;100269.81;4974337;28;20046;-84
2022/11/24 01:03:39;;;;;;;4.68;1.55;;;;;;;6.23;100.00;100268.13;4974604;28;20113;-84
2022/11/24 01:06:07;;;;;;;4.18;1.88;;;;;;;6.23;100.00;100271.56;4975036;28;20031;-84
2022/11/24 01:08:33;;;;;;;8.73;1.92;;;;;;;6.22;100.00;100281.88;4974224;28;20034;-85
2022/11/24 01:11:10;;;;;;;6.95;2.00;;;;;;;6.22;100.00;100280.16;4975231;28;20019;-85
2022/11/24 01:13:35;;;;;;;;;;;;;;;6.23;100.00;100281.84;4974679;28;20026;-84
2022/11/24 01:16:00;;;;;;;3.50;1.63;;;;;;;6.22;100.00;100285.31;4975204;28;19941;-84
2022/11/24 01:18:26;;;;;;;3.97;1.75;;;;;;;6.22;100.00;100287.03;4974254;28;20034;-85
2022/11/24 01:20:51;;;;;;;8.23;2.30;;;;;;;6.22;100.00;100284.47;4974385;28;20555;-84
2022/11/24 01:23:16;;;;;;;10.65;2.25;;;;;;;6.23;100.00;100291.31;4974175;28;20026;-84
2022/11/24 01:25:42;;;;;;;5.88;2.05;;;;;;;6.23;100.00;100284.44;4975029;28;20038;-84
2022/11/24 01:28:07;;;;;;;7.07;2.00;;;;;;;6.24;100.00;100287.88;4973803;28;20027;-84
2022/11/24 01:30:33;;;;;;;8.38;2.13;;;;;;;6.24;100.00;100293.88;4974574;28;20023;-84
2022/11/24 01:32:58;;;;;;;7.35;2.10;;;;;;;6.25;100.00;100290.44;4974367;28;20082;-86
2022/11/24 01:35:23;;;;;;;4.57;1.60;;;;;;;6.27;100.00;100287.84;4973677;28;20031;-84
2022/11/24 01:37:49;;;;;;;7.18;2.10;;;;;;;6.23;100.00;100292.16;4973305;28;20046;-84
2022/11/24 01:40:14;;;;;;;5.93;1.90;;;;;;;6.23;100.00;100302.47;4974276;28;20027;-84
2022/11/24 01:42:48;;;;;;;5.60;1.70;;;;;;;6.20;100.00;100302.50;4973747;28;20027;-84
2022/11/24 01:45:31;;;;;;;4.57;1.60;;;;;;;6.17;100.00;100307.69;4973842;28;20158;-85
2022/11/24 01:47:57;;;;;;;5.20;1.40;;;;;;;6.16;100.00;100306.81;4974345;28;20015;-84
2022/11/24 01:50:22;;;;;;;2.42;1.40;;;;;;;6.16;100.00;100311.13;4973181;28;20045;-84
2022/11/24 01:52:51;;;;;;;4.03;1.30;;;;;;;6.14;100.00;100313.69;4974637;28;20023;-84
2022/11/24 01:55:24;;;;;;;5.22;1.90;;;;;;;6.14;100.00;100320.56;4974192;28;20023;-84
2022/11/24 01:57:59;;;;;;;6.65;2.00;;;;;;;6.13;100.00;100316.28;4973407;28;20026;-84
2022/11/24 02:00:25;;;;;;;5.25;1.70;;;;;;;6.12;100.00;100317.13;4973966;28;20061;-84
2022/11/24 02:02:51;;;;;;;7.50;1.80;;;;;;;6.11;100.00;100323.16;4973722;28;20034;-84
2022/11/24 02:05:22;;;;;;;7.72;1.92;;;;;;;6.07;100.00;100327.47;4973323;28;20051;-84
2022/11/24 02:07:50;;;;;;;5.60;1.90;;;;;;;6.08;100.00;100330.94;4974196;28;20436;-84
2022/11/24 02:10:16;;;;;;;8.05;1.90;;;;;;;6.08;100.00;100330.94;4973163;28;20033;-84
2022/11/24 02:12:45;;;;;;;3.28;1.50;;;;;;;6.08;100.00;100333.50;4973779;28;20027;-84
2022/11/24 02:15:13;;;;;;;5.47;1.70;;;;;;;6.08;100.00;100336.06;4973659;28;20065;-84
2022/11/24 02:17:38;;;;;;;3.20;1.50;;;;;;;6.09;100.00;100340.34;4973375;28;20030;-84
2022/11/24 02:20:07;;;;;;;5.43;1.70;;;;;;;6.06;100.00;100338.63;4973478;28;20379;-84
2022/11/24 02:22:54;;;;;;;3.22;1.75;;;;;;;6.08;100.00;100336.06;4970638;28;20114;-84
2022/11/24 02:25:39;;;;;;;8.80;2.05;;;;;;;6.10;100.00;100342.06;4973041;28;20523;-84
2022/11/24 02:28:09;;;;;;;6.15;1.80;;;;;;;6.10;100.00;100342.94;4973466;28;20027;-84
2022/11/24 02:30:35;;;;;;;5.35;2.00;;;;;;;6.10;100.00;100342.06;4974103;28;20030;-84
2022/11/24 02:33:01;;;;;;;5.60;1.73;;;;;;;6.10;100.00;100336.91;4972972;28;20027;-84
2022/11/24 02:35:27;;;;;;;5.97;1.90;;;;;;;6.10;100.00;100342.06;4973298;28;20050;-84
2022/11/24 02:37:52;;;;;;;7.85;1.90;;;;;;;6.13;100.00;100347.19;4973550;28;20034;-84
2022/11/24 02:40:24;;;;;;;6.07;1.70;;;;;;;6.09;100.00;100341.22;4972913;28;20033;-84
2022/11/24 02:42:53;;;;;;;4.68;2.00;;;;;;;6.10;100.00;100345.50;4973227;28;20059;-85
2022/11/24 02:45:19;;;;;;;6.50;1.80;;;;;;;6.10;100.00;100342.94;4972613;28;20026;-84
2022/11/24 02:47:45;;;;;;;6.03;1.98;;;;;;;6.13;100.00;100345.50;4973794;28;20498;-84
2022/11/24 02:50:10;;;;;;;3.58;1.73;;;;;;;6.15;100.00;100342.91;4976402;28;20109;-84
2022/11/24 02:52:36;;;;;;;2.70;1.50;;;;;;;6.15;100.00;100348.06;4976525;28;20046;-85
2022/11/24 02:55:01;;;;;;;5.10;1.50;;;;;;;6.16;100.00;100347.19;4977676;28;20052;-84
2022/11/24 02:57:26;;;;;;;2.67;1.30;;;;;;;6.21;100.00;100354.91;4977051;28;20054;-84
2022/11/24 02:59:52;;;;;;;3.28;1.38;;;;;;;6.22;100.00;100347.16;4976900;28;20483;-85
2022/11/24 03:02:17;;;;;;;5.60;1.93;;;;;;;6.23;100.00;100343.72;4976992;28;20465;-84
2022/11/24 03:04:43;;;;;;;6.85;1.40;;;;;;;6.27;100.00;100348.00;4976777;28;20051;-84
2022/11/24 03:07:08;;;;;;;4.80;1.83;;;;;;;6.32;100.00;100359.13;4976306;28;20460;-85
2022/11/24 03:09:34;;;;;;;6.20;2.03;;;;;;;6.34;100.00;100359.97;4977088;28;20034;-84
2022/11/24 03:11:59;;;;;;;5.25;1.80;;;;;;;6.38;100.00;100362.53;4977348;28;20446;-84
2022/11/24 03:14:25;;;;;;;4.82;1.58;;;;;;;6.39;100.00;100361.66;4976250;28;20034;-84
2022/11/24 03:16:50;;;;;;;7.70;2.00;;;;;;;6.40;100.00;100360.81;4977118;28;20034;-84
2022/11/24 03:19:15;;;;;;;6.63;1.88;;;;;;;6.37;100.00;100366.81;4976903;28;20039;-84
2022/11/24 03:21:41;;;;;;;4.80;1.73;;;;;;;6.39;100.00;100370.25;4976263;28;20364;-85
2022/11/24 03:24:06;;;;;;;6.28;1.90;;;;;;;6.42;100.00;100369.38;4976730;28;20039;-84
2022/11/24 03:26:32;;;;;;;4.43;1.98;;;;;;;6.43;100.00;100369.38;4977062;28;20042;-85
2022/11/24 03:28:58;;;;;;;5.65;2.00;;;;;;;6.45;100.00;100374.50;4976701;28;20041;-85
2022/11/24 03:31:23;;;;;;;4.60;1.70;;;;;;;6.48;100.00;100375.34;4976753;28;20023;-84
2022/11/24 03:33:49;;;;;;;7.95;2.10;;;;;;;6.51;100.00;100368.47;4976471;28;20058;-85
2022/11/24 03:36:15;;;;;;;8.23;2.00;;;;;;;6.55;100.00;100377.91;4975890;28;20110;-84
2022/11/24 03:38:41;;;;;;;5.15;2.00;;;;;;;6.57;100.00;100377.03;4976891;28;20054;-84
2022/11/24 03:41:06;;;;;;;9.18;2.30;;;;;;;6.60;100.00;100377.00;4976213;28;20443;-84
2022/11/24 03:43:31;;;;;;;10.23;2.20;;;;;;;6.60;100.00;100371.84;4976006;28;20023;-84
2022/11/24 03:45:57;;;;;;;13.00;2.63;;;;;;;6.61;100.00;100376.16;4976788;28;20468;-84
2022/11/24 03:48:23;;;;;;;10.05;2.50;;;;;;;6.64;100.00;100385.56;4975364;28;20518;-84
2022/11/24 03:51:00;;;;;;;8.07;2.45;;;;;;;6.65;100.00;100382.97;4976746;28;20050;-84
2022/11/24 03:53:28;;;;;;;8.80;2.58;;;;;;;6.66;100.00;100373.53;4976336;28;20027;-85
2022/11/24 03:55:53;;;;;;;11.25;2.58;;;;;;;6.67;100.00;100376.97;4975670;28;20452;-85
2022/11/24 03:58:19;;;;;;;9.43;2.30;;;;;;;6.69;100.00;100381.25;4976034;28;20039;-85
2022/11/24 04:00:47;;;;;;;8.17;2.20;;;;;;;6.73;100.00;100384.66;4975180;28;20023;-85
2022/11/24 04:03:12;;;;;;;6.30;2.28;;;;;;;6.74;100.00;100392.38;4975620;28;20511;-84
2022/11/24 04:05:37;;;;;;;9.17;2.30;;;;;;;6.75;100.00;100386.38;4976158;28;20074;-85
2022/11/24 04:08:04;;;;;;;8.20;2.60;;;;;;;6.79;100.00;100382.91;4976087;28;20054;-85
2022/11/24 04:10:31;;;;;;;8.10;2.08;;;;;;;6.81;100.00;100390.63;4975601;28;20049;-85
2022/11/24 04:12:56;;;;;;;4.85;1.80;;;;;;;6.82;100.00;100399.19;4976210;28;20126;-85
2022/11/24 04:15:22;;;;;;;5.93;1.90;;;;;;;6.80;100.00;100399.22;4975629;28;20117;-84
2022/11/24 04:17:48;;;;;;;10.43;2.30;;;;;;;6.83;100.00;100395.75;4975072;28;20066;-85
2022/11/24 04:20:14;;;;;;;10.88;2.38;;;;;;;6.83;100.00;100401.78;4976008;28;20085;-85
2022/11/24 04:22:40;;;;;;;9.60;2.22;;;;;;;6.83;100.00;100403.50;4976073;28;20034;-84
2022/11/24 04:25:07;;;;;;;7.03;2.30;;;;;;;6.85;100.00;100425.84;4975207;28;20031;-85
2022/11/24 04:27:34;;;;;;;9.63;2.50;;;;;;;6.85;100.00;100431.00;4975756;28;20506;-86
2022/11/24 04:29:59;;;;;;;8.32;2.47;;;;;;;6.88;100.00;100448.19;4975756;28;20023;-86
2022/11/24 04:32:24;;;;;;;12.40;2.67;;;;;;;6.85;100.00;100446.50;4974926;28;20033;-87
2022/11/24 04:34:50;;;;;;;12.93;2.60;;;;;;;6.83;100.00;100447.34;4975912;28;20369;-87
2022/11/24 04:37:15;;;;;;;10.20;2.30;;;;;;;6.80;100.00;100458.53;4975945;28;20019;-88
2022/11/24 04:39:40;;;;;;;6.50;2.08;;;;;;;6.71;100.00;100454.28;4976167;28;20031;-89
2022/11/24 04:42:06;;;;;;;5.37;1.90;;;;;;;6.68;100.00;100449.19;4976250;28;20045;-89
2022/11/24 04:44:31;;;;;;;3.67;1.60;;;;;;;6.66;100.00;100445.75;4976559;28;20497;-89
2022/11/24 04:46:56;;;;;;;4.40;1.45;;;;;;;6.63;100.00;100450.91;4976226;28;20031;-88
2022/11/24 04:49:22;;;;;;;4.30;1.83;;;;;;;6.64;100.00;100457.78;4976253;28;20073;-88
2022/11/24 04:51:47;;;;;;;5.07;1.48;;;;;;;6.61;100.00;100452.63;4975785;28;20147;-88
2022/11/24 04:54:13;;;;;;;2.72;1.13;;;;;;;6.60;100.00;100448.34;4975408;28;20031;-88
2022/11/24 04:56:40;;;;;;;1.35;1.15;;;;;;;6.58;100.00;100440.63;4976078;28;20023;-88
2022/11/24 04:59:05;;;;;;;2.70;1.20;;;;;;;6.60;100.00;100451.78;4974923;28;20038;-87
2022/11/24 05:01:31;;;;;;;2.50;1.17;;;;;;;6.59;100.00;100449.19;4976062;28;20376;-88
2022/11/24 05:03:57;;;;;;;2.05;1.10;;;;;;;6.59;100.00;100452.66;4975485;28;20058;-87
2022/11/24 05:06:23;;;;;;;4.38;1.48;;;;;;;6.58;100.00;100447.50;4981475;28;20027;-88
2022/11/24 05:08:51;;;;;;;2.50;1.23;;;;;;;6.57;100.00;100451.78;4995156;28;20057;-88
2022/11/24 05:11:18;;;;;;;2.55;1.38;;;;;;;6.56;100.00;100450.06;4994666;28;20069;-87
2022/11/24 05:13:44;;;;;;;2.53;1.23;;;;;;;6.56;100.00;100457.81;4994520;28;20113;-88
2022/11/24 05:16:09;;;;;;;1.83;1.10;;;;;;;6.54;100.00;100454.38;4994932;28;20027;-87
2022/11/24 05:18:34;;;;;;;2.30;1.20;;;;;;;6.55;100.00;100461.25;4994929;28;20034;-88
2022/11/24 05:21:00;;;;;;;1.77;0.85;;;;;;;6.54;100.00;100474.16;4989022;28;20019;-88
2022/11/24 05:23:25;;;;;;;2.33;0.77;;;;;;;6.55;100.00;100478.47;4975201;28;20031;-88
2022/11/24 05:25:51;;;;;;;3.20;0.90;;;;;;;6.54;100.00;100485.31;4975012;28;20034;-88
2022/11/24 05:28:17;;;;;;;1.23;1.10;;;;;;;6.57;100.00;100475.00;4974598;28;20023;-88
2022/11/24 05:30:43;;;;;;;1.47;0.93;;;;;;;6.54;100.00;100485.31;4974738;28;20039;-88
2022/11/24 05:33:17;;;;;;;0.83;0.70;;;;;;;6.53;100.00;100478.44;4975428;28;20655;-87
2022/11/24 05:35:47;;;;;;;0.60;0.57;;;;;;;6.54;100.00;100485.31;4974552;28;20034;-88
2022/11/24 05:38:14;;;;;;;0.73;0.70;;;;;;;6.55;100.00;100483.63;4974417;28;20037;-87
2022/11/24 05:40:39;;;;;;;0.77;0.52;;;;;;;6.55;100.00;100496.50;4974857;28;20018;-87
2022/11/24 05:43:16;;;;;;;0.90;0.80;;;;;;;6.57;100.00;100494.78;4974493;28;20027;-88
2022/11/24 05:45:42;;;;;;;0.82;0.50;;;;;;;6.56;100.00;100495.66;4974854;28;20547;-88
2022/11/24 05:48:11;;;;;;;0.70;0.50;;;;;;;6.55;100.00;100499.94;4974361;28;20464;-88
2022/11/24 05:50:36;;;;;;;0.85;0.30;;;;;;;6.53;100.00;100498.22;4974275;28;20061;-87
2022/11/24 05:53:14;;;;;;;0.40;0.30;;;;;;;6.55;100.00;100507.66;4975144;28;20031;-87
2022/11/24 05:55:40;;;;;;;1.20;0.60;;;;;;;6.57;100.00;100502.53;4974801;28;20031;-86
2022/11/24 05:58:07;;;;;;;0.82;0.63;;;;;;;6.56;100.00;100511.97;4974402;28;20379;-85
2022/11/24 06:00:34;;;;;;;1.75;0.80;;;;;;;6.56;100.00;100521.44;4974366;28;20499;-86
2022/11/24 06:03:00;;;;;;;;;;;;;;;6.56;100.00;100524.00;4974627;28;20027;-86
2022/11/24 06:05:26;;;;;;;1.63;0.90;;;;;;;6.54;100.00;100529.16;4974089;28;19929;-86
2022/11/24 06:07:53;;;;;;;1.55;0.93;;;;;;;6.56;100.00;100536.91;4974538;28;20100;-86
2022/11/24 06:10:21;;;;;;;5.55;1.60;;;;;;;6.57;100.00;100538.63;4975538;28;20021;-87
2022/11/24 06:12:46;;;;;;;1.98;1.17;;;;;;;6.58;100.00;100540.34;4976571;28;20376;-86
2022/11/24 06:15:12;;;;;;;5.40;1.55;;;;;;;6.59;100.00;100534.28;4974996;28;20023;-85
2022/11/24 06:17:38;;;;;;;5.97;1.77;;;;;;;6.61;100.00;100543.75;4974038;28;20015;-85
2022/11/24 06:20:06;;;;;;;3.47;1.45;;;;;;;6.63;100.00;100549.78;4974412;28;20124;-86
2022/11/24 06:22:31;;;;;;;3.63;1.70;;;;;;;6.63;100.00;100548.91;4974848;28;20019;-89
2022/11/24 06:24:57;;;;;;;2.67;1.50;;;;;;;6.64;100.00;100556.63;4978896;28;20431;-86
2022/11/24 06:27:22;;;;;;;4.80;1.70;;;;;;;6.65;100.00;100560.91;4980626;28;20369;-85
2022/11/24 06:29:47;;;;;;;6.80;1.73;;;;;;;6.70;100.00;100568.63;4980358;28;20030;-85
2022/11/24 06:32:13;;;;;;;6.00;1.80;;;;;;;6.68;100.00;100572.09;4979745;28;20023;-85
2022/11/24 06:34:38;;;;;;;3.90;1.80;;;;;;;6.65;100.00;100581.53;4980521;28;20081;-85
2022/11/24 06:37:03;;;;;;;7.53;2.00;;;;;;;6.64;100.00;100587.56;4979759;28;20050;-85
2022/11/24 06:39:29;;;;;;;5.85;2.00;;;;;;;6.65;100.00;100594.44;4980226;28;20023;-86
2022/11/24 06:41:54;;;;;;;4.43;1.77;;;;;;;6.65;100.00;100604.75;4980702;28;20050;-85
2022/11/24 06:44:19;;;;;;;4.95;1.55;;;;;;;6.66;100.00;100595.31;4980269;28;20023;-86
2022/11/24 06:46:45;;;;;;;3.67;1.70;;;;;;;6.65;100.00;100612.50;4980116;28;20105;-86
2022/11/24 06:49:10;;;;;;;3.95;1.98;;;;;;;6.65;100.00;100616.81;4979570;28;20037;-86
2022/11/24 06:51:35;;;;;;;3.60;1.20;;;;;;;6.65;100.00;100629.69;4980059;28;20030;-87
2022/11/24 06:54:04;;;;;;;3.07;1.50;;;;;;;6.64;100.00;100625.41;4980556;28;20027;-86
2022/11/24 06:56:30;;;;;;;3.63;1.60;;;;;;;6.63;100.00;100627.13;4980425;28;20041;-86
2022/11/24 06:58:55;;;;;;;5.90;1.60;;;;;;;6.60;100.00;100637.44;4979571;28;20034;-85
2022/11/24 07:01:23;;;;;;;3.55;1.33;;;;;;;6.58;100.00;100646.91;4980906;28;20066;-90
2022/11/24 07:03:49;;;;;;;2.75;1.20;;;;;;;6.55;100.00;100649.47;4980993;28;20043;-91
2022/11/24 07:06:15;;;;;;;3.53;1.45;;;;;;;6.51;100.00;100657.22;4980623;28;20057;-92
2022/11/24 07:08:40;;;;;;;3.00;1.35;;;;;;;6.49;100.00;100655.50;4981439;28;20398;-91
2022/11/24 07:11:08;;;;;;;3.28;1.20;;;;;;;6.48;100.00;100670.97;4980839;28;20111;-87
2022/11/24 07:13:34;;;;;;;2.63;1.17;;;;;;;6.46;100.00;100680.44;4979901;28;20015;-87
2022/11/24 07:16:15;;;;;;;2.47;0.90;;;;;;;6.39;100.00;100682.16;4980801;28;20046;-88
2022/11/24 07:18:42;;;;;;;4.22;1.50;;;;;;;6.38;100.00;100689.91;4980809;28;20105;-86
2022/11/24 07:21:07;;;;;;;3.97;1.05;;;;;;;6.36;100.00;100686.47;4979604;28;20031;-86
2022/11/24 07:23:33;;;;;;;1.70;1.00;;;;;;;6.34;100.00;100699.34;4980301;28;20037;-86
2022/11/24 07:26:00;;;;;;;2.20;1.10;;;;;;;6.38;100.00;100698.47;4980448;28;20029;-87
2022/11/24 07:28:25;;;;;;;3.90;1.00;;;;;;;6.34;100.00;100707.94;4979522;28;20031;-87
2022/11/24 07:30:51;;;;;;;1.75;1.25;;;;;;;6.35;100.00;100713.97;4980623;28;20076;-86
2022/11/24 07:33:20;;;;;;;3.35;1.13;;;;;;;6.35;100.00;100716.53;4980100;28;20027;-85
2022/11/24 07:35:45;;;;;;;2.35;0.93;;;;;;;6.36;100.00;100715.66;4976704;28;20467;-85
2022/11/24 07:38:11;;;;;;;2.10;0.90;;;;;;;6.37;100.00;100719.97;4976741;28;20030;-85
2022/11/24 07:40:36;;;;;;;2.88;1.23;;;;;;;6.38;100.00;100726.84;4976351;28;20038;-85
2022/11/24 07:43:01;;;;;;;3.00;1.35;;;;;;;6.39;100.00;100722.56;4976612;28;20030;-85
2022/11/24 07:45:27;;;;;;;2.42;0.93;;;;;;;6.39;100.00;100732.88;4976568;28;20026;-85
2022/11/24 07:47:52;;;;;;;1.02;0.68;;;;;;;6.38;100.00;100732.00;4976263;28;20023;-85
2022/11/24 07:50:19;;;;;;;0.80;0.52;;;;;;;6.38;100.00;100744.03;4976558;28;20023;-86
2022/11/24 07:52:44;;;;;;;;;;;;;;;6.36;100.00;100751.75;4976907;28;20038;-85
2022/11/24 07:55:10;;;;;;;2.37;1.07;;;;;;;6.33;100.00;100741.47;4975512;28;19914;-85
2022/11/24 07:57:35;;;;;;;6.05;1.20;;;;;;;6.28;100.00;100743.16;4976306;28;20030;-85
2022/11/24 08:00:02;;;;;;;2.13;1.20;;;;;;;6.28;100.00;100753.47;4976668;28;20026;-86
2022/11/24 08:02:27;;;;;;;3.95;1.10;;;;;;;6.25;100.00;100759.47;4975715;28;20023;-84
2022/11/24 08:04:52;;;;;;;4.70;1.33;;;;;;;6.25;100.00;100756.06;4976321;28;20097;-83
2022/11/24 08:07:17;;;;;;;3.78;1.23;;;;;;;6.27;100.00;100754.31;4976373;28;20045;-85
2022/11/24 08:09:43;;;;;;;2.10;1.00;;;;;;;6.26;100.00;100763.78;4975922;28;20489;-86
2022/11/24 08:12:08;;;;;;;1.37;0.90;;;;;;;6.27;100.00;100757.78;4976066;28;20034;-87
2022/11/24 08:14:33;;;;;;;2.47;1.27;;;;;;;6.29;100.00;100768.06;4976331;28;20121;-86
2022/11/24 08:16:58;;;;;;;1.77;1.10;;;;;;;6.31;100.00;100774.94;4974088;28;20035;-85
2022/11/24 08:19:24;;;;;;;3.78;0.93;;;;;;;6.34;100.00;100781.84;4975826;28;20119;-86
2022/11/24 08:21:49;;;;;;;2.40;1.10;;;;;;;6.36;100.00;100787.84;4976397;28;20128;-87
2022/11/24 08:24:15;;;;;;;2.97;1.10;;;;;;;6.41;100.00;100793.03;4975246;28;20041;-87
2022/11/24 08:26:41;;;;;;;3.20;1.08;;;;;;;6.43;100.00;100801.59;4976081;28;20077;-85
2022/11/24 08:29:07;;;;;;;3.53;1.20;;;;;;;6.46;100.00;100799.03;4975698;28;20033;-84
2022/11/24 08:31:34;;;;;;;2.58;1.10;;;;;;;6.47;100.00;100793.88;4975568;28;20105;-87
2022/11/24 08:34:01;;;;;;;5.22;1.58;;;;;;;6.50;100.00;100800.75;4976275;28;20023;-86
2022/11/24 08:36:27;;;;;;;3.63;1.42;;;;;;;6.54;100.00;100802.47;4975679;28;20046;-86
2022/11/24 08:38:55;;;;;;;3.83;1.40;;;;;;;6.58;100.00;100805.94;4975383;28;20058;-85
2022/11/24 08:41:20;;;;;;;1.88;1.25;;;;;;;6.62;100.00;100813.66;4975251;28;20034;-86
2022/11/24 08:43:46;;;;;;;4.97;1.47;;;;;;;6.72;100.00;100813.66;4974726;28;20022;-84
2022/11/24 08:46:15;;;;;;;3.13;1.63;;;;;;;6.71;100.00;100823.09;4974960;28;20030;-83
2022/11/24 08:48:41;;;;;;;5.63;1.80;;;;;;;6.76;100.00;100830.84;4975449;28;20109;-82
2022/11/24 08:51:09;;;;;;;2.77;1.20;;;;;;;6.82;100.00;100827.41;4974369;28;20540;-82
2022/11/24 08:53:34;;;;;;;2.88;1.77;;;;;;;6.88;100.00;100835.16;4975554;28;20035;-86
2022/11/24 08:56:00;;;;;;;3.13;1.10;;;;;;;6.93;100.00;100841.16;4976321;28;20031;-84
2022/11/24 08:58:27;;;;;;;1.90;1.23;;;;;;;6.97;100.00;100857.53;4974963;28;20035;-85
2022/11/24 09:00:53;;;;;;;4.30;1.58;;;;;;;7.03;100.00;100858.38;4975248;28;20030;-83
2022/11/24 09:03:18;;;;;;;4.87;1.63;;;;;;;7.08;100.00;100856.66;4975235;28;20019;-87
2022/11/24 09:05:43;;;;;;;3.42;1.30;;;;;;;7.15;100.00;100859.25;4974277;28;20051;-85
2022/11/24 09:08:08;;;;;;;4.90;1.70;;;;;;;7.20;100.00;100862.66;4974575;28;20023;-85
2022/11/24 09:10:34;;;;;;;3.87;1.60;;;;;;;7.26;100.00;100867.84;4974898;28;20131;-83
2022/11/24 09:13:00;;;;;;;3.95;1.38;;;;;;;7.31;100.00;100868.66;4974305;28;20113;-84
2022/11/24 09:15:25;;;;;;;2.60;1.17;;;;;;;7.38;100.00;100875.53;4974539;28;20105;-85
2022/11/24 09:17:50;;;;;;;6.95;1.63;;;;;;;7.40;100.00;100876.41;4974493;28;20031;-86
2022/11/24 09:20:16;;;;;;;3.20;1.70;;;;;;;7.45;100.00;100873.81;4973842;28;20031;-85
2022/11/24 09:22:41;;;;;;;5.35;1.88;;;;;;;7.50;100.00;100879.84;4975178;28;20555;-85
2022/11/24 09:25:08;;;;;;;6.43;2.07;;;;;;;7.54;100.00;100884.13;4974278;28;20435;-83
2022/11/24 09:27:33;;;;;;;8.63;2.30;;;;;;;7.60;100.00;100890.16;4973823;28;20057;-84
2022/11/24 09:29:58;;;;;;;8.05;2.22;;;;;;;7.63;100.00;100891.00;4974760;28;20278;-84
2022/11/24 09:32:24;;;;;;;4.17;1.93;;;;;;;7.69;100.00;100892.69;4974240;28;20054;-85
2022/11/24 09:34:50;;;;;;;3.20;1.53;;;;;;;7.76;100.00;100899.59;4974855;28;20034;-86
2022/11/24 09:37:16;;;;;;;5.47;1.80;;;;;;;7.82;100.00;100899.56;4974642;28;20019;-88
2022/11/24 09:39:41;;;;;;;4.57;1.60;;;;;;;7.87;99.97;100908.16;4974185;28;20046;-85
2022/11/24 09:42:32;;;;;;;3.93;1.40;;;;;;;7.94;99.76;100914.16;4974035;28;20460;-87
2022/11/24 09:45:12;;;;;;;12.93;2.35;;;;;;;7.99;98.57;100917.59;4974919;28;20118;-87
2022/11/24 09:47:50;;;;;;;6.85;1.98;;;;;;;8.07;98.77;100925.31;4974244;28;20106;-87
2022/11/24 09:50:20;;;;;;;7.85;2.08;;;;;;;8.12;98.64;100925.31;4974706;28;20513;-90
2022/11/24 09:53:02;;;;;;;5.32;1.80;;;;;;;8.17;98.93;100920.97;4975538;28;20038;-87
2022/11/24 09:55:35;;;;;;;7.55;1.92;;;;;;;8.24;99.21;100926.97;4973942;28;20067;-86
2022/11/24 09:58:04;;;;;;;6.78;1.75;;;;;;;8.32;98.02;100940.75;4974367;28;20039;-86
2022/11/24 10:00:30;;;;;;;7.72;2.20;;;;;;;8.34;97.03;100939.88;4973611;28;20114;-86
2022/11/24 10:02:56;;;;;;;10.90;2.63;;;;;;;8.40;96.80;100941.56;4972926;28;20523;-87
2022/11/24 10:05:25;;;;;;;11.75;2.67;;;;;;;8.47;96.97;100942.41;4973493;28;20046;-87
2022/11/24 10:08:07;;;;;;;9.38;2.28;;;;;;;8.50;97.20;100943.25;4974390;28;20116;-85
2022/11/24 10:10:48;;;;;;;6.45;2.15;;;;;;;8.58;98.25;100939.78;4974276;28;20041;-85
2022/11/24 10:13:34;;;;;;;8.57;2.22;;;;;;;8.64;96.00;100948.34;4973466;28;20031;-85
2022/11/24 10:16:34;;;;;;;4.57;1.80;;;;;;;8.76;96.50;100955.22;4974410;28;20049;-86
2022/11/24 10:19:36;;;;;;;8.98;2.10;;;;;;;8.77;96.04;100961.22;4974023;28;20035;-85
2022/11/24 10:22:17;;;;;;;5.72;1.95;;;;;;;8.81;97.29;100963.78;4973684;28;20038;-85
2022/11/24 10:24:53;;;;;;;4.05;1.58;;;;;;;8.92;96.80;100968.03;4974367;28;20402;-85
2022/11/24 10:27:29;;;;;;;7.88;2.22;;;;;;;8.99;95.67;100966.25;4973792;28;20078;-85
2022/11/24 10:29:55;;;;;;;6.20;2.45;;;;;;;9.04;95.56;100973.13;4973518;28;20463;-86
2022/11/24 10:32:42;;;;;;;4.60;1.80;;;;;;;9.11;96.58;100977.41;4974416;28;20023;-85
2022/11/24 10:35:29;;;;;;;6.90;1.80;;;;;;;9.18;96.12;100974.78;4973585;28;20361;-84
2022/11/24 10:38:05;;;;;;;3.58;1.67;;;;;;;9.22;95.28;100979.91;4973449;28;20054;-82
2022/11/24 10:40:38;;;;;;;9.43;2.13;;;;;;;9.27;93.63;100987.66;4973748;28;20033;-83
2022/11/24 10:43:09;;;;;;;5.80;2.10;;;;;;;9.30;95.14;100985.03;4973255;28;20073;-82
2022/11/24 10:45:36;;;;;;;8.82;2.28;;;;;;;9.37;94.58;100983.25;4973279;28;20483;-82
2022/11/24 10:48:03;;;;;;;6.85;1.90;;;;;;;9.39;94.39;100987.56;4973734;28;20031;-82
2022/11/24 10:50:36;;;;;;;6.05;1.90;;;;;;;9.45;93.41;100983.22;4973168;28;20504;-82
2022/11/24 10:53:08;;;;;;;8.65;2.22;;;;;;;9.48;91.91;100980.56;4973425;28;20122;-84
2022/11/24 10:55:55;;;;;;;9.38;2.22;;;;;;;9.52;94.17;100983.13;4973678;28;20035;-82
2022/11/24 10:58:26;;;;;;;10.05;2.40;;;;;;;9.55;92.88;100987.44;4972669;28;20047;-82
2022/11/24 11:00:52;;;;;;;8.70;2.00;;;;;;;9.58;92.71;100980.50;4973560;28;20031;-81
2022/11/24 11:03:21;;;;;;;4.90;1.60;;;;;;;9.62;93.08;100986.50;4973316;28;20027;-81
2022/11/24 11:05:51;;;;;;;9.70;2.25;;;;;;;9.69;91.98;100985.56;4972607;28;20133;-81
2022/11/24 11:08:18;;;;;;;6.55;1.90;;;;;;;9.71;92.03;100978.63;4973597;28;20122;-81
2022/11/24 11:10:45;;;;;;;5.63;1.92;;;;;;;9.76;92.16;100973.41;4975417;28;20034;-81
2022/11/24 11:13:19;;;;;;;5.60;1.75;;;;;;;9.85;92.75;100978.47;4976430;28;20031;-81
2022/11/24 11:15:45;;;;;;;8.00;2.00;;;;;;;9.90;92.64;100981.06;4977161;28;20468;-81
2022/11/24 11:18:15;;;;;;;3.77;1.70;;;;;;;9.94;91.81;100974.09;4976915;28;20074;-81
2022/11/24 11:20:49;;;;;;;5.50;1.90;;;;;;;9.99;91.48;100988.75;4976193;28;20500;-81
2022/11/24 11:23:26;;;;;;;5.97;2.13;;;;;;;10.02;90.83;100980.91;4976740;28;20034;-81
2022/11/24 11:26:20;;;;;;;8.23;2.15;;;;;;;10.05;91.20;100978.28;4976343;28;20382;-80
2022/11/24 11:28:59;;;;;;;6.72;1.75;;;;;;;10.11;90.65;100972.16;4977024;28;20093;-81
2022/11/24 11:31:25;;;;;;;4.60;1.88;;;;;;;10.14;91.00;100974.75;4976830;28;20034;-80